WZZ6MR LHBP-LGZA
Flight info
| Callsign | WZZ6MR |
|---|---|
| Flight time | N/A |
| Altitude | 37000 |
| Route | FAHAZ DCT KEROP DCT TADAM DCT AKIKA DCT LIMJA DCT PITAS/N0425F330 UN732 KRK UT321 ASTUS |
| Aircraft | A321/M-SDE1E2E3FGIJ1J4RWXY/LB1 |
Departure
| Time | N/A |
|---|---|
| Airport | Budapest Liszt Ferenc International Airport (LHBP) |
Arrival
| Time | 2026-04-24 19:44 |
|---|---|
| Airport | Zakynthos International Airport Dionysios Solomos (LGZA) |
| Time | Latitude | Longitude | Altitude | Speed | Heading |
|---|---|---|---|---|---|
| 2026-04-24 18:54 | 41.51840 | 19.56466 | 37070 ft | 460 kts | 178° |
| 2026-04-24 18:55 | 41.42246 | 19.56101 | 37064 ft | 460 kts | 178° |
| 2026-04-24 18:56 | 41.35855 | 19.55857 | 37067 ft | 460 kts | 178° |
| 2026-04-24 18:56 | 41.29464 | 19.55611 | 37074 ft | 460 kts | 178° |
| 2026-04-24 18:57 | 41.23071 | 19.55364 | 37067 ft | 460 kts | 178° |
| 2026-04-24 18:57 | 41.16667 | 19.55132 | 37061 ft | 460 kts | 178° |
| 2026-04-24 18:58 | 41.10256 | 19.54903 | 37060 ft | 461 kts | 178° |
| 2026-04-24 18:58 | 41.04925 | 19.54701 | 37065 ft | 461 kts | 178° |
| 2026-04-24 18:59 | 40.98505 | 19.54458 | 37060 ft | 461 kts | 178° |
| 2026-04-24 18:59 | 40.92086 | 19.54217 | 37076 ft | 462 kts | 178° |
| 2026-04-24 19:00 | 40.85662 | 19.53981 | 37073 ft | 462 kts | 178° |
| 2026-04-24 19:00 | 40.79235 | 19.53741 | 37072 ft | 462 kts | 178° |
| 2026-04-24 19:01 | 40.72815 | 19.53497 | 37073 ft | 462 kts | 178° |
| 2026-04-24 19:01 | 40.66530 | 19.53248 | 37054 ft | 440 kts | 178° |
| 2026-04-24 19:01 | 40.63526 | 19.53194 | 37048 ft | 422 kts | 170° |
| 2026-04-24 19:02 | 40.60705 | 19.53789 | 37053 ft | 402 kts | 163° |
| 2026-04-24 19:02 | 40.58009 | 19.54523 | 37054 ft | 389 kts | 163° |
| 2026-04-24 19:02 | 40.55406 | 19.55241 | 37053 ft | 376 kts | 162° |
| 2026-04-24 19:02 | 40.52896 | 19.55939 | 37053 ft | 362 kts | 162° |
| 2026-04-24 19:03 | 40.50480 | 19.56607 | 37056 ft | 347 kts | 160° |
| 2026-04-24 19:03 | 40.48221 | 19.57451 | 36952 ft | 333 kts | 155° |
| 2026-04-24 19:03 | 40.45949 | 19.58274 | 36364 ft | 349 kts | 159° |
| 2026-04-24 19:03 | 40.43474 | 19.58975 | 35840 ft | 372 kts | 162° |
| 2026-04-24 19:04 | 40.40937 | 19.59557 | 36157 ft | 370 kts | 163° |
| 2026-04-24 19:04 | 40.38385 | 19.60046 | 36300 ft | 373 kts | 166° |
| 2026-04-24 19:04 | 40.35811 | 19.60362 | 36607 ft | 371 kts | 169° |
| 2026-04-24 19:05 | 40.30680 | 19.61417 | 36612 ft | 377 kts | 159° |
| 2026-04-24 19:05 | 40.25535 | 19.63329 | 36613 ft | 392 kts | 159° |
| 2026-04-24 19:06 | 40.20139 | 19.65117 | 36610 ft | 409 kts | 162° |
| 2026-04-24 19:06 | 40.14457 | 19.66697 | 36599 ft | 426 kts | 163° |
| 2026-04-24 19:07 | 40.08546 | 19.68259 | 36601 ft | 441 kts | 164° |
| 2026-04-24 19:07 | 40.02439 | 19.69906 | 36591 ft | 456 kts | 163° |
| 2026-04-24 19:08 | 39.96129 | 19.71647 | 36587 ft | 469 kts | 163° |
| 2026-04-24 19:08 | 39.89849 | 19.73364 | 36585 ft | 455 kts | 163° |
| 2026-04-24 19:09 | 39.83664 | 19.75041 | 36584 ft | 454 kts | 164° |
| 2026-04-24 19:09 | 39.77471 | 19.76736 | 36567 ft | 455 kts | 164° |
| 2026-04-24 19:10 | 39.71271 | 19.78432 | 36576 ft | 455 kts | 164° |
| 2026-04-24 19:10 | 39.65066 | 19.80115 | 36569 ft | 456 kts | 164° |
| 2026-04-24 19:11 | 39.58857 | 19.81797 | 36560 ft | 457 kts | 164° |
| 2026-04-24 19:11 | 39.52877 | 19.84355 | 36563 ft | 452 kts | 155° |
| 2026-04-24 19:12 | 39.46994 | 19.87225 | 36187 ft | 451 kts | 155° |
| 2026-04-24 19:12 | 39.44059 | 19.88659 | 35641 ft | 450 kts | 154° |
| 2026-04-24 19:12 | 39.41130 | 19.90090 | 35094 ft | 450 kts | 154° |
| 2026-04-24 19:12 | 39.38205 | 19.91514 | 34554 ft | 449 kts | 154° |
| 2026-04-24 19:13 | 39.36271 | 19.92452 | 34182 ft | 449 kts | 154° |
| 2026-04-24 19:13 | 39.32354 | 19.94349 | 33321 ft | 449 kts | 154° |
| 2026-04-24 19:13 | 39.29432 | 19.95764 | 32635 ft | 449 kts | 154° |
| 2026-04-24 19:13 | 39.26545 | 19.97162 | 31946 ft | 449 kts | 153° |
| 2026-04-24 19:14 | 39.23582 | 19.98597 | 31245 ft | 449 kts | 153° |
| 2026-04-24 19:14 | 39.20658 | 20.00011 | 30548 ft | 449 kts | 153° |
| 2026-04-24 19:14 | 39.17729 | 20.01425 | 29805 ft | 449 kts | 153° |
| 2026-04-24 19:14 | 39.14839 | 20.02821 | 28931 ft | 450 kts | 153° |
| 2026-04-24 19:15 | 39.11898 | 20.04242 | 27894 ft | 454 kts | 154° |
| 2026-04-24 19:15 | 39.08942 | 20.05672 | 26832 ft | 458 kts | 154° |
| 2026-04-24 19:15 | 39.05902 | 20.07139 | 25764 ft | 462 kts | 154° |
| 2026-04-24 19:15 | 39.02918 | 20.08576 | 24714 ft | 466 kts | 155° |
| 2026-04-24 19:16 | 38.96742 | 20.11542 | 22307 ft | 474 kts | 155° |
| 2026-04-24 19:16 | 38.93642 | 20.13028 | 21018 ft | 477 kts | 156° |
| 2026-04-24 19:16 | 38.90529 | 20.14522 | 19941 ft | 476 kts | 156° |
| 2026-04-24 19:17 | 38.87498 | 20.15993 | 19241 ft | 467 kts | 156° |
| 2026-04-24 19:17 | 38.84491 | 20.17468 | 18473 ft | 459 kts | 156° |
| 2026-04-24 19:17 | 38.81530 | 20.18938 | 17604 ft | 454 kts | 156° |
| 2026-04-24 19:17 | 38.78632 | 20.20388 | 17182 ft | 438 kts | 156° |
| 2026-04-24 19:18 | 38.75856 | 20.21777 | 17007 ft | 419 kts | 156° |
| 2026-04-24 19:18 | 38.73208 | 20.23095 | 16947 ft | 400 kts | 156° |
| 2026-04-24 19:18 | 38.70658 | 20.24359 | 16811 ft | 384 kts | 156° |
| 2026-04-24 19:18 | 38.68203 | 20.25571 | 16498 ft | 374 kts | 153° |
| 2026-04-24 19:19 | 38.65834 | 20.26799 | 16553 ft | 366 kts | 150° |
| 2026-04-24 19:19 | 38.63508 | 20.28212 | 16801 ft | 373 kts | 147° |
| 2026-04-24 19:19 | 38.61162 | 20.29654 | 17201 ft | 377 kts | 152° |
| 2026-04-24 19:19 | 38.58656 | 20.30696 | 17915 ft | 382 kts | 159° |
| 2026-04-24 19:20 | 38.56056 | 20.31468 | 18600 ft | 384 kts | 161° |
| 2026-04-24 19:20 | 38.53493 | 20.32329 | 19432 ft | 376 kts | 157° |
| 2026-04-24 19:20 | 38.50933 | 20.33067 | 19931 ft | 382 kts | 163° |
| 2026-04-24 19:20 | 38.48348 | 20.33699 | 19718 ft | 377 kts | 159° |
| 2026-04-24 19:21 | 38.45855 | 20.34753 | 19606 ft | 378 kts | 151° |
| 2026-04-24 19:21 | 38.43431 | 20.36014 | 19619 ft | 377 kts | 151° |
| 2026-04-24 19:21 | 38.40989 | 20.37241 | 19622 ft | 377 kts | 152° |
| 2026-04-24 19:21 | 38.38536 | 20.38415 | 19653 ft | 376 kts | 154° |
| 2026-04-24 19:22 | 38.36877 | 20.39058 | 19849 ft | 379 kts | 159° |
| 2026-04-24 19:22 | 38.33334 | 20.39778 | 20451 ft | 391 kts | 170° |
| 2026-04-24 19:22 | 38.30587 | 20.39753 | 20871 ft | 398 kts | 181° |
| 2026-04-24 19:22 | 38.27928 | 20.39002 | 20717 ft | 389 kts | 195° |
| 2026-04-24 19:23 | 38.25541 | 20.37455 | 20383 ft | 382 kts | 214° |
| 2026-04-24 19:23 | 38.23645 | 20.35170 | 20174 ft | 371 kts | 226° |
| 2026-04-24 19:23 | 38.21843 | 20.32881 | 19956 ft | 362 kts | 225° |
| 2026-04-24 19:23 | 38.20061 | 20.30664 | 19730 ft | 354 kts | 225° |
| 2026-04-24 19:24 | 38.18340 | 20.28480 | 19513 ft | 346 kts | 226° |
| 2026-04-24 19:24 | 38.16638 | 20.26361 | 19298 ft | 339 kts | 225° |
| 2026-04-24 19:24 | 38.14939 | 20.24325 | 19084 ft | 333 kts | 218° |
| 2026-04-24 19:24 | 38.12925 | 20.22953 | 18643 ft | 332 kts | 194° |
| 2026-04-24 19:25 | 38.10629 | 20.22634 | 17832 ft | 339 kts | 171° |
| 2026-04-24 19:25 | 38.08270 | 20.23123 | 17201 ft | 352 kts | 165° |
| 2026-04-24 19:25 | 38.05758 | 20.23791 | 17021 ft | 385 kts | 165° |
| 2026-04-24 19:25 | 38.03064 | 20.24533 | 17020 ft | 409 kts | 165° |
| 2026-04-24 19:26 | 38.00223 | 20.25328 | 17010 ft | 433 kts | 165° |
| 2026-04-24 19:26 | 37.97234 | 20.26170 | 17014 ft | 439 kts | 165° |
| 2026-04-24 19:26 | 37.94402 | 20.26957 | 17029 ft | 394 kts | 165° |
| 2026-04-24 19:26 | 37.91888 | 20.27639 | 17034 ft | 356 kts | 165° |
| 2026-04-24 19:27 | 37.89581 | 20.28249 | 17031 ft | 323 kts | 165° |
| 2026-04-24 19:27 | 37.87442 | 20.28801 | 16919 ft | 310 kts | 165° |
| 2026-04-24 19:27 | 37.85297 | 20.29358 | 15775 ft | 321 kts | 165° |
| 2026-04-24 19:27 | 37.83066 | 20.29954 | 14545 ft | 334 kts | 165° |
| 2026-04-24 19:28 | 37.80855 | 20.30553 | 14269 ft | 312 kts | 165° |
| 2026-04-24 19:28 | 37.78799 | 20.31102 | 13960 ft | 295 kts | 165° |
| 2026-04-24 19:28 | 37.76809 | 20.31631 | 13394 ft | 289 kts | 165° |
| 2026-04-24 19:28 | 37.74858 | 20.32149 | 12776 ft | 284 kts | 165° |
| 2026-04-24 19:29 | 37.71047 | 20.33168 | 11595 ft | 276 kts | 165° |
| 2026-04-24 19:29 | 37.69179 | 20.33669 | 10996 ft | 272 kts | 165° |
| 2026-04-24 19:29 | 37.67343 | 20.34169 | 10449 ft | 268 kts | 165° |
| 2026-04-24 19:30 | 37.65532 | 20.34661 | 9864 ft | 265 kts | 166° |
| 2026-04-24 19:30 | 37.63749 | 20.35152 | 9266 ft | 260 kts | 165° |
| 2026-04-24 19:30 | 37.62001 | 20.35639 | 8685 ft | 255 kts | 165° |
| 2026-04-24 19:30 | 37.60279 | 20.36106 | 8075 ft | 252 kts | 165° |
| 2026-04-24 19:31 | 37.58563 | 20.36523 | 7471 ft | 249 kts | 165° |
| 2026-04-24 19:31 | 37.56875 | 20.36929 | 6932 ft | 244 kts | 166° |
| 2026-04-24 19:31 | 37.55231 | 20.37360 | 6394 ft | 239 kts | 164° |
| 2026-04-24 19:31 | 37.53618 | 20.37784 | 5772 ft | 236 kts | 165° |
| 2026-04-24 19:32 | 37.52012 | 20.38237 | 5161 ft | 235 kts | 165° |
| 2026-04-24 19:32 | 37.50428 | 20.38709 | 4523 ft | 233 kts | 165° |
| 2026-04-24 19:32 | 37.48852 | 20.39197 | 3903 ft | 232 kts | 165° |
| 2026-04-24 19:32 | 37.47289 | 20.39686 | 3313 ft | 231 kts | 165° |
| 2026-04-24 19:33 | 37.45751 | 20.40221 | 3054 ft | 232 kts | 155° |
| 2026-04-24 19:33 | 37.44460 | 20.41385 | 3014 ft | 231 kts | 124° |
| 2026-04-24 19:33 | 37.43769 | 20.43161 | 3014 ft | 226 kts | 95° |
| 2026-04-24 19:33 | 37.43827 | 20.45095 | 3017 ft | 221 kts | 68° |
| 2026-04-24 19:34 | 37.44450 | 20.46840 | 3016 ft | 218 kts | 59° |
| 2026-04-24 19:34 | 37.45125 | 20.48535 | 3016 ft | 216 kts | 61° |
| 2026-04-24 19:34 | 37.45799 | 20.50229 | 3012 ft | 217 kts | 60° |
| 2026-04-24 19:34 | 37.46477 | 20.51935 | 3016 ft | 219 kts | 62° |
| 2026-04-24 19:35 | 37.47151 | 20.53641 | 3017 ft | 217 kts | 62° |
| 2026-04-24 19:35 | 37.47822 | 20.55341 | 3009 ft | 217 kts | 62° |
| 2026-04-24 19:35 | 37.48494 | 20.57043 | 3013 ft | 217 kts | 62° |
| 2026-04-24 19:35 | 37.49168 | 20.58753 | 3014 ft | 218 kts | 62° |
| 2026-04-24 19:36 | 37.49838 | 20.60458 | 3016 ft | 217 kts | 61° |
| 2026-04-24 19:36 | 37.50511 | 20.62166 | 3015 ft | 218 kts | 62° |
| 2026-04-24 19:36 | 37.51186 | 20.63881 | 3013 ft | 219 kts | 62° |
| 2026-04-24 19:36 | 37.51860 | 20.65595 | 3010 ft | 219 kts | 61° |
| 2026-04-24 19:37 | 37.52532 | 20.67304 | 3011 ft | 216 kts | 62° |
| 2026-04-24 19:37 | 37.53200 | 20.69009 | 3011 ft | 217 kts | 63° |
| 2026-04-24 19:37 | 37.53870 | 20.70724 | 3011 ft | 218 kts | 62° |
| 2026-04-24 19:37 | 37.54537 | 20.72430 | 3012 ft | 217 kts | 63° |
| 2026-04-24 19:38 | 37.55204 | 20.74130 | 3009 ft | 217 kts | 63° |
| 2026-04-24 19:38 | 37.55873 | 20.75832 | 3008 ft | 217 kts | 63° |
| 2026-04-24 19:38 | 37.56378 | 20.77630 | 3008 ft | 218 kts | 79° |
| 2026-04-24 19:38 | 37.56402 | 20.79551 | 3013 ft | 221 kts | 92° |
| 2026-04-24 19:39 | 37.56260 | 20.81480 | 3012 ft | 223 kts | 92° |
| 2026-04-24 19:39 | 37.56124 | 20.83430 | 3012 ft | 224 kts | 92° |
| 2026-04-24 19:39 | 37.55991 | 20.85381 | 3010 ft | 224 kts | 92° |
| 2026-04-24 19:39 | 37.55858 | 20.87316 | 3011 ft | 224 kts | 92° |
| 2026-04-24 19:40 | 37.55724 | 20.89274 | 3009 ft | 224 kts | 92° |
| 2026-04-24 19:40 | 37.55729 | 20.91201 | 3009 ft | 221 kts | 74° |
| 2026-04-24 19:40 | 37.56420 | 20.92883 | 3010 ft | 217 kts | 45° |
| 2026-04-24 19:40 | 37.57661 | 20.93906 | 3010 ft | 214 kts | 17° |
| 2026-04-24 19:41 | 37.59132 | 20.94047 | 3011 ft | 215 kts | 349° |
| 2026-04-24 19:41 | 37.60579 | 20.93537 | 3011 ft | 217 kts | 345° |
| 2026-04-24 19:41 | 37.61532 | 20.93183 | 2902 ft | 214 kts | 345° |
| 2026-04-24 19:41 | 37.63480 | 20.92467 | 2119 ft | 229 kts | 345° |
| 2026-04-24 19:42 | 37.64492 | 20.92096 | 1961 ft | 224 kts | 345° |
| 2026-04-24 19:42 | 37.65998 | 20.91566 | 1902 ft | 237 kts | 346° |
| 2026-04-24 19:42 | 37.67634 | 20.91009 | 1853 ft | 246 kts | 346° |
| 2026-04-24 19:42 | 37.69316 | 20.90437 | 1007 ft | 254 kts | 346° |
| 2026-04-24 19:43 | 37.70959 | 20.89910 | 878 ft | 225 kts | 347° |
| 2026-04-24 19:43 | 37.72354 | 20.89435 | 657 ft | 190 kts | 344° |
| 2026-04-24 19:43 | 37.73498 | 20.88998 | 337 ft | 156 kts | 343° |
| 2026-04-24 19:43 | 37.74548 | 20.88620 | 45 ft | 153 kts | 345° |
| 2026-04-24 19:44 | 37.75477 | 20.88284 | 16 ft | 111 kts | 345° |
| 2026-04-24 19:44 | 37.75836 | 20.88152 | 17 ft | 40 kts | 343° |
| 2026-04-24 19:44 | 37.76069 | 20.88080 | 15 ft | 8 kts | 4° |
| 2026-04-24 19:44 | 37.76074 | 20.88066 | 15 ft | 4 kts | 261° |
| 2026-04-24 19:45 | 37.76018 | 20.88080 | 16 ft | 14 kts | 156° |
| 2026-04-24 19:45 | 37.75912 | 20.88126 | 16 ft | 22 kts | 163° |
| 2026-04-24 19:45 | 37.75766 | 20.88169 | 18 ft | 28 kts | 168° |
| 2026-04-24 19:45 | 37.75631 | 20.88225 | 17 ft | 17 kts | 162° |
| 2026-04-24 19:46 | 37.75517 | 20.88276 | 16 ft | 15 kts | 150° |
| 2026-04-24 19:46 | 37.75465 | 20.88382 | 18 ft | 14 kts | 124° |
| 2026-04-24 19:46 | 37.75425 | 20.88429 | 16 ft | 0 kts | 177° |
| 2026-04-24 19:46 | 37.75399 | 20.88432 | 18 ft | 2 kts | 168° |
| 2026-04-24 19:47 | 37.75353 | 20.88446 | 16 ft | 10 kts | 164° |
| 2026-04-24 19:47 | 37.75310 | 20.88486 | 16 ft | 7 kts | 95° |
| 2026-04-24 19:47 | 37.75347 | 20.88539 | 17 ft | 0 kts | 56° |
| 2026-04-24 19:47 | 37.75354 | 20.88556 | 16 ft | 0 kts | 73° |